sensor_id;sensor_type;location;lat;lon;timestamp;pressure;altitude;pressure_sealevel;temperature
24740;BMP280;45234;48.148;17.128;2023-08-06T00:02:14;98658.25;;;18.02
24740;BMP280;45234;48.148;17.128;2023-08-06T00:04:41;98669.25;;;18.04
24740;BMP280;45234;48.148;17.128;2023-08-06T00:07:08;98664.28;;;18.03
24740;BMP280;45234;48.148;17.128;2023-08-06T00:09:34;98663.25;;;17.99
24740;BMP280;45234;48.148;17.128;2023-08-06T00:12:01;98669.06;;;17.96
24740;BMP280;45234;48.148;17.128;2023-08-06T00:14:28;98672.22;;;17.93
24740;BMP280;45234;48.148;17.128;2023-08-06T00:16:55;98663.53;;;17.97
24740;BMP280;45234;48.148;17.128;2023-08-06T00:19:22;98661.91;;;18.01
24740;BMP280;45234;48.148;17.128;2023-08-06T00:21:49;98652.22;;;18.02
24740;BMP280;45234;48.148;17.128;2023-08-06T00:24:16;98633.34;;;18.00
24740;BMP280;45234;48.148;17.128;2023-08-06T00:26:43;98622.09;;;17.99
24740;BMP280;45234;48.148;17.128;2023-08-06T00:29:10;98613.75;;;17.97
24740;BMP280;45234;48.148;17.128;2023-08-06T00:31:37;98602.25;;;17.93
24740;BMP280;45234;48.148;17.128;2023-08-06T00:34:04;98588.88;;;17.90
24740;BMP280;45234;48.148;17.128;2023-08-06T00:36:31;98578.19;;;17.86
24740;BMP280;45234;48.148;17.128;2023-08-06T00:38:58;98570.13;;;17.83
24740;BMP280;45234;48.148;17.128;2023-08-06T00:41:25;98563.88;;;17.79
24740;BMP280;45234;48.148;17.128;2023-08-06T00:43:52;98572.50;;;17.79
24740;BMP280;45234;48.148;17.128;2023-08-06T00:46:20;98559.16;;;17.76
24740;BMP280;45234;48.148;17.128;2023-08-06T00:48:47;98553.66;;;17.77
24740;BMP280;45234;48.148;17.128;2023-08-06T00:51:15;98548.41;;;17.77
24740;BMP280;45234;48.148;17.128;2023-08-06T00:53:43;98544.03;;;17.72
24740;BMP280;45234;48.148;17.128;2023-08-06T00:56:10;98539.00;;;17.76
24740;BMP280;45234;48.148;17.128;2023-08-06T00:58:38;98536.94;;;17.73
24740;BMP280;45234;48.148;17.128;2023-08-06T01:01:05;98548.13;;;17.79
24740;BMP280;45234;48.148;17.128;2023-08-06T01:03:32;98561.78;;;17.76
24740;BMP280;45234;48.148;17.128;2023-08-06T01:06:00;98573.63;;;17.73
24740;BMP280;45234;48.148;17.128;2023-08-06T01:08:56;98576.34;;;17.63
24740;BMP280;45234;48.148;17.128;2023-08-06T01:11:44;98581.53;;;17.68
24740;BMP280;45234;48.148;17.128;2023-08-06T01:17:43;98586.19;;;17.71
24740;BMP280;45234;48.148;17.128;2023-08-06T01:20:11;98578.28;;;17.76
24740;BMP280;45234;48.148;17.128;2023-08-06T01:22:38;98578.22;;;17.81
24740;BMP280;45234;48.148;17.128;2023-08-06T01:25:05;98582.53;;;17.72
24740;BMP280;45234;48.148;17.128;2023-08-06T01:30:25;98581.66;;;17.53
24740;BMP280;45234;48.148;17.128;2023-08-06T01:32:58;98570.84;;;17.59
24740;BMP280;45234;48.148;17.128;2023-08-06T01:35:28;98575.06;;;17.55
24740;BMP280;45234;48.148;17.128;2023-08-06T01:37:59;98576.94;;;17.55
24740;BMP280;45234;48.148;17.128;2023-08-06T01:40:27;98573.75;;;17.58
24740;BMP280;45234;48.148;17.128;2023-08-06T01:42:56;98575.84;;;17.56
24740;BMP280;45234;48.148;17.128;2023-08-06T01:45:22;98571.97;;;17.53
24740;BMP280;45234;48.148;17.128;2023-08-06T01:47:52;98573.84;;;17.48
24740;BMP280;45234;48.148;17.128;2023-08-06T01:50:19;98580.72;;;17.39
24740;BMP280;45234;48.148;17.128;2023-08-06T01:52:46;98573.47;;;17.30
24740;BMP280;45234;48.148;17.128;2023-08-06T01:55:13;98565.09;;;17.28
24740;BMP280;45234;48.148;17.128;2023-08-06T01:57:40;98564.09;;;17.24
24740;BMP280;45234;48.148;17.128;2023-08-06T02:00:07;98546.31;;;17.21
24740;BMP280;45234;48.148;17.128;2023-08-06T02:02:40;98546.31;;;17.16
24740;BMP280;45234;48.148;17.128;2023-08-06T02:05:10;98540.66;;;17.09
24740;BMP280;45234;48.148;17.128;2023-08-06T02:07:39;98541.94;;;17.07
24740;BMP280;45234;48.148;17.128;2023-08-06T02:10:06;98537.56;;;16.97
24740;BMP280;45234;48.148;17.128;2023-08-06T02:12:34;98546.47;;;16.96
24740;BMP280;45234;48.148;17.128;2023-08-06T02:15:01;98531.31;;;16.93
24740;BMP280;45234;48.148;17.128;2023-08-06T02:17:32;98529.50;;;16.93
24740;BMP280;45234;48.148;17.128;2023-08-06T02:20:00;98535.00;;;16.87
24740;BMP280;45234;48.148;17.128;2023-08-06T02:22:30;98514.34;;;16.85
24740;BMP280;45234;48.148;17.128;2023-08-06T02:24:57;98528.75;;;16.88
24740;BMP280;45234;48.148;17.128;2023-08-06T02:27:24;98518.81;;;16.85
24740;BMP280;45234;48.148;17.128;2023-08-06T02:29:51;98506.50;;;16.85
24740;BMP280;45234;48.148;17.128;2023-08-06T02:32:18;98506.22;;;16.87
24740;BMP280;45234;48.148;17.128;2023-08-06T02:34:45;98509.91;;;16.86
24740;BMP280;45234;48.148;17.128;2023-08-06T02:37:16;98515.41;;;16.89
24740;BMP280;45234;48.148;17.128;2023-08-06T02:39:44;98509.88;;;16.91
24740;BMP280;45234;48.148;17.128;2023-08-06T02:42:11;98510.94;;;16.85
24740;BMP280;45234;48.148;17.128;2023-08-06T02:44:39;98506.78;;;16.89
24740;BMP280;45234;48.148;17.128;2023-08-06T02:47:06;98511.00;;;16.80
24740;BMP280;45234;48.148;17.128;2023-08-06T02:49:33;98493.28;;;16.72
24740;BMP280;45234;48.148;17.128;2023-08-06T02:51:59;98488.59;;;16.69
24740;BMP280;45234;48.148;17.128;2023-08-06T02:54:27;98498.53;;;16.67
24740;BMP280;45234;48.148;17.128;2023-08-06T02:56:55;98490.16;;;16.65
24740;BMP280;45234;48.148;17.128;2023-08-06T02:59:26;98482.31;;;16.65
24740;BMP280;45234;48.148;17.128;2023-08-06T03:02:13;98482.88;;;16.61
24740;BMP280;45234;48.148;17.128;2023-08-06T03:05:06;98481.09;;;16.57
24740;BMP280;45234;48.148;17.128;2023-08-06T03:07:37;98487.59;;;16.54
24740;BMP280;45234;48.148;17.128;2023-08-06T03:10:13;98479.00;;;16.49
24740;BMP280;45234;48.148;17.128;2023-08-06T03:12:42;98482.97;;;16.46
24740;BMP280;45234;48.148;17.128;2023-08-06T03:15:09;98492.81;;;16.54
24740;BMP280;45234;48.148;17.128;2023-08-06T03:17:37;98477.75;;;16.46
24740;BMP280;45234;48.148;17.128;2023-08-06T03:20:06;98490.25;;;16.49
24740;BMP280;45234;48.148;17.128;2023-08-06T03:22:34;98479.31;;;16.47
24740;BMP280;45234;48.148;17.128;2023-08-06T03:25:01;98486.38;;;16.47
24740;BMP280;45234;48.148;17.128;2023-08-06T03:27:32;98474.09;;;16.42
24740;BMP280;45234;48.148;17.128;2023-08-06T03:29:59;98473.81;;;16.44
24740;BMP280;45234;48.148;17.128;2023-08-06T03:32:34;98476.72;;;16.42
24740;BMP280;45234;48.148;17.128;2023-08-06T03:35:02;98466.75;;;16.44
24740;BMP280;45234;48.148;17.128;2023-08-06T03:37:31;98468.88;;;16.42
24740;BMP280;45234;48.148;17.128;2023-08-06T03:39:58;98468.88;;;16.42
24740;BMP280;45234;48.148;17.128;2023-08-06T03:42:25;98462.06;;;16.41
24740;BMP280;45234;48.148;17.128;2023-08-06T03:44:51;98456.28;;;16.44
24740;BMP280;45234;48.148;17.128;2023-08-06T03:47:18;98457.38;;;16.38
24740;BMP280;45234;48.148;17.128;2023-08-06T03:49:49;98445.03;;;16.44
24740;BMP280;45234;48.148;17.128;2023-08-06T03:52:16;98450.03;;;16.40
24740;BMP280;45234;48.148;17.128;2023-08-06T03:54:43;98430.44;;;16.43
24740;BMP280;45234;48.148;17.128;2023-08-06T03:57:10;98433.78;;;16.43
24740;BMP280;45234;48.148;17.128;2023-08-06T03:59:38;98425.44;;;16.46
24740;BMP280;45234;48.148;17.128;2023-08-06T04:02:05;98430.13;;;16.49
24740;BMP280;45234;48.148;17.128;2023-08-06T04:04:32;98426.72;;;16.49
24740;BMP280;45234;48.148;17.128;2023-08-06T04:07:00;98432.19;;;16.52
24740;BMP280;45234;48.148;17.128;2023-08-06T04:09:29;98433.50;;;16.50
24740;BMP280;45234;48.148;17.128;2023-08-06T04:11:56;98416.00;;;16.50
24740;BMP280;45234;48.148;17.128;2023-08-06T04:14:27;98426.50;;;16.45
24740;BMP280;45234;48.148;17.128;2023-08-06T04:16:56;98417.03;;;16.49
24740;BMP280;45234;48.148;17.128;2023-08-06T04:19:23;98420.16;;;16.51
24740;BMP280;45234;48.148;17.128;2023-08-06T04:21:50;98423.84;;;16.50
24740;BMP280;45234;48.148;17.128;2023-08-06T04:24:18;98422.25;;;16.49
24740;BMP280;45234;48.148;17.128;2023-08-06T04:26:45;98413.38;;;16.50
24740;BMP280;45234;48.148;17.128;2023-08-06T04:29:12;98411.81;;;16.49
24740;BMP280;45234;48.148;17.128;2023-08-06T04:31:39;98420.22;;;16.46
24740;BMP280;45234;48.148;17.128;2023-08-06T04:34:07;98415.00;;;16.46
24740;BMP280;45234;48.148;17.128;2023-08-06T04:36:37;98422.84;;;16.46
24740;BMP280;45234;48.148;17.128;2023-08-06T04:39:07;98429.63;;;16.47
24740;BMP280;45234;48.148;17.128;2023-08-06T04:41:33;98425.97;;;16.48
24740;BMP280;45234;48.148;17.128;2023-08-06T04:44:00;98416.56;;;16.47
24740;BMP280;45234;48.148;17.128;2023-08-06T04:46:28;98432.72;;;16.49
24740;BMP280;45234;48.148;17.128;2023-08-06T04:48:54;98429.63;;;16.47
24740;BMP280;45234;48.148;17.128;2023-08-06T04:51:21;98421.78;;;16.47
24740;BMP280;45234;48.148;17.128;2023-08-06T04:53:48;98420.94;;;16.52
24740;BMP280;45234;48.148;17.128;2023-08-06T04:56:15;98439.00;;;16.53
24740;BMP280;45234;48.148;17.128;2023-08-06T04:58:42;98451.78;;;16.55
24740;BMP280;45234;48.148;17.128;2023-08-06T05:01:10;98437.63;;;16.61
24740;BMP280;45234;48.148;17.128;2023-08-06T05:03:37;98448.59;;;16.63
24740;BMP280;45234;48.148;17.128;2023-08-06T05:06:04;98465.06;;;16.69
24740;BMP280;45234;48.148;17.128;2023-08-06T05:08:31;98448.59;;;16.68
24740;BMP280;45234;48.148;17.128;2023-08-06T05:10:58;98439.16;;;16.67
24740;BMP280;45234;48.148;17.128;2023-08-06T05:13:24;98459.84;;;16.64
24740;BMP280;45234;48.148;17.128;2023-08-06T05:15:56;98452.03;;;16.58
24740;BMP280;45234;48.148;17.128;2023-08-06T05:18:23;98454.94;;;16.57
24740;BMP280;45234;48.148;17.128;2023-08-06T05:20:50;98435.28;;;16.54
24740;BMP280;45234;48.148;17.128;2023-08-06T05:23:17;98432.19;;;16.52
24740;BMP280;45234;48.148;17.128;2023-08-06T05:25:44;98439.53;;;16.50
24740;BMP280;45234;48.148;17.128;2023-08-06T05:28:10;98430.13;;;16.49
24740;BMP280;45234;48.148;17.128;2023-08-06T05:30:41;98431.69;;;16.50
24740;BMP280;45234;48.148;17.128;2023-08-06T05:33:08;98428.00;;;16.51
24740;BMP280;45234;48.148;17.128;2023-08-06T05:35:35;98424.41;;;16.47
24740;BMP280;45234;48.148;17.128;2023-08-06T05:38:02;98428.28;;;16.50
24740;BMP280;45234;48.148;17.128;2023-08-06T05:40:29;98429.59;;;16.52
24740;BMP280;45234;48.148;17.128;2023-08-06T05:42:56;98428.78;;;16.57
24740;BMP280;45234;48.148;17.128;2023-08-06T05:45:23;98442.59;;;16.63
24740;BMP280;45234;48.148;17.128;2023-08-06T05:47:50;98434.16;;;16.66
24740;BMP280;45234;48.148;17.128;2023-08-06T05:50:17;98454.03;;;16.72
24740;BMP280;45234;48.148;17.128;2023-08-06T05:52:44;98458.75;;;16.70
24740;BMP280;45234;48.148;17.128;2023-08-06T05:55:11;98461.09;;;16.71
24740;BMP280;45234;48.148;17.128;2023-08-06T05:57:38;98460.25;;;16.81
24740;BMP280;45234;48.148;17.128;2023-08-06T06:00:05;98462.84;;;16.81
24740;BMP280;45234;48.148;17.128;2023-08-06T06:02:40;98465.47;;;16.81
24740;BMP280;45234;48.148;17.128;2023-08-06T06:05:07;98478.56;;;16.76
24740;BMP280;45234;48.148;17.128;2023-08-06T06:07:36;98472.53;;;16.80
24740;BMP280;45234;48.148;17.128;2023-08-06T06:10:03;98474.06;;;16.86
24740;BMP280;45234;48.148;17.128;2023-08-06T06:12:30;98465.41;;;16.91
24740;BMP280;45234;48.148;17.128;2023-08-06T06:14:57;98471.63;;;16.95
24740;BMP280;45234;48.148;17.128;2023-08-06T06:17:24;98475.31;;;16.94
24740;BMP280;45234;48.148;17.128;2023-08-06T06:19:51;98464.28;;;16.97
24740;BMP280;45234;48.148;17.128;2023-08-06T06:22:17;98455.34;;;17.03
24740;BMP280;45234;48.148;17.128;2023-08-06T06:24:44;98450.63;;;17.05
24740;BMP280;45234;48.148;17.128;2023-08-06T06:27:12;98455.78;;;17.15
24740;BMP280;45234;48.148;17.128;2023-08-06T06:29:39;98453.19;;;17.10
24740;BMP280;45234;48.148;17.128;2023-08-06T06:32:06;98441.91;;;17.15
24740;BMP280;45234;48.148;17.128;2023-08-06T06:34:33;98440.25;;;17.24
24740;BMP280;45234;48.148;17.128;2023-08-06T06:37:00;98429.50;;;17.25
24740;BMP280;45234;48.148;17.128;2023-08-06T06:39:27;98433.63;;;17.31
24740;BMP280;45234;48.148;17.128;2023-08-06T06:41:54;98418.44;;;17.33
24740;BMP280;45234;48.148;17.128;2023-08-06T06:44:29;98415.47;;;17.40
24740;BMP280;45234;48.148;17.128;2023-08-06T06:46:56;98409.44;;;17.40
24740;BMP280;45234;48.148;17.128;2023-08-06T06:49:23;98421.41;;;17.46
24740;BMP280;45234;48.148;17.128;2023-08-06T06:51:50;98429.75;;;17.53
24740;BMP280;45234;48.148;17.128;2023-08-06T06:54:18;98410.47;;;17.44
24740;BMP280;45234;48.148;17.128;2023-08-06T06:56:44;98415.19;;;17.42
24740;BMP280;45234;48.148;17.128;2023-08-06T06:59:11;98410.47;;;17.44
24740;BMP280;45234;48.148;17.128;2023-08-06T07:01:38;98414.56;;;17.50
24740;BMP280;45234;48.148;17.128;2023-08-06T07:04:05;98423.94;;;17.56
24740;BMP280;45234;48.148;17.128;2023-08-06T07:06:32;98416.56;;;17.58
24740;BMP280;45234;48.148;17.128;2023-08-06T07:08:59;98429.66;;;17.58
24740;BMP280;45234;48.148;17.128;2023-08-06T07:11:26;98424.94;;;17.60
24740;BMP280;45234;48.148;17.128;2023-08-06T07:13:57;98427.41;;;17.51
24740;BMP280;45234;48.148;17.128;2023-08-06T07:16:25;98417.16;;;17.55
24740;BMP280;45234;48.148;17.128;2023-08-06T07:18:54;98417.63;;;17.57
24740;BMP280;45234;48.148;17.128;2023-08-06T07:21:21;98424.94;;;17.60
24740;BMP280;45234;48.148;17.128;2023-08-06T07:23:48;98417.59;;;17.62
24740;BMP280;45234;48.148;17.128;2023-08-06T07:26:18;98425.38;;;17.67
24740;BMP280;45234;48.148;17.128;2023-08-06T07:28:45;98425.56;;;17.70
24740;BMP280;45234;48.148;17.128;2023-08-06T07:31:12;98427.59;;;17.79
24740;BMP280;45234;48.148;17.128;2023-08-06T07:33:39;98426.00;;;17.83
24740;BMP280;45234;48.148;17.128;2023-08-06T07:36:13;98427.28;;;17.80
24740;BMP280;45234;48.148;17.128;2023-08-06T07:38:41;98417.69;;;17.94
24740;BMP280;45234;48.148;17.128;2023-08-06T07:41:08;98417.84;;;18.03
24740;BMP280;45234;48.148;17.128;2023-08-06T07:43:36;98420.59;;;18.11
24740;BMP280;45234;48.148;17.128;2023-08-06T07:46:03;98416.16;;;18.12
24740;BMP280;45234;48.148;17.128;2023-08-06T07:48:30;98423.66;;;18.19
24740;BMP280;45234;48.148;17.128;2023-08-06T07:50:58;98428.63;;;18.20
24740;BMP280;45234;48.148;17.128;2023-08-06T07:53:25;98434.66;;;18.21
24740;BMP280;45234;48.148;17.128;2023-08-06T07:55:56;98427.56;;;18.21
24740;BMP280;45234;48.148;17.128;2023-08-06T07:58:24;98438.59;;;18.18
24740;BMP280;45234;48.148;17.128;2023-08-06T08:00:52;98429.97;;;18.18
24740;BMP280;45234;48.148;17.128;2023-08-06T08:03:19;98441.94;;;18.24
24740;BMP280;45234;48.148;17.128;2023-08-06T08:05:47;98439.69;;;18.17
24740;BMP280;45234;48.148;17.128;2023-08-06T08:08:14;98426.84;;;18.16
24740;BMP280;45234;48.148;17.128;2023-08-06T08:10:43;98448.81;;;18.20
24740;BMP280;45234;48.148;17.128;2023-08-06T08:13:10;98460.81;;;18.26
24740;BMP280;45234;48.148;17.128;2023-08-06T08:15:37;98474.41;;;18.28
24740;BMP280;45234;48.148;17.128;2023-08-06T08:18:03;98493.53;;;18.28
24740;BMP280;45234;48.148;17.128;2023-08-06T08:20:30;98495.28;;;18.33
24740;BMP280;45234;48.148;17.128;2023-08-06T08:23:02;98494.97;;;18.39
24740;BMP280;45234;48.148;17.128;2023-08-06T08:25:29;98482.00;;;18.48
24740;BMP280;45234;48.148;17.128;2023-08-06T08:27:58;98487.66;;;18.55
24740;BMP280;45234;48.148;17.128;2023-08-06T08:30:25;98488.06;;;18.62
24740;BMP280;45234;48.148;17.128;2023-08-06T08:32:52;98489.81;;;18.67
24740;BMP280;45234;48.148;17.128;2023-08-06T08:35:19;98485.09;;;18.69
24740;BMP280;45234;48.148;17.128;2023-08-06T08:37:46;98496.53;;;18.78
24740;BMP280;45234;48.148;17.128;2023-08-06T08:40:14;98486.81;;;18.78
24740;BMP280;45234;48.148;17.128;2023-08-06T08:42:42;98489.81;;;18.85
24740;BMP280;45234;48.148;17.128;2023-08-06T08:45:13;98499.19;;;18.92
24740;BMP280;45234;48.148;17.128;2023-08-06T08:47:41;98503.78;;;19.00
24740;BMP280;45234;48.148;17.128;2023-08-06T08:50:14;98516.81;;;19.05
24740;BMP280;45234;48.148;17.128;2023-08-06T08:52:43;98536.16;;;19.09
24740;BMP280;45234;48.148;17.128;2023-08-06T08:55:15;98553.41;;;19.15
24740;BMP280;45234;48.148;17.128;2023-08-06T08:57:42;98553.97;;;19.12
24740;BMP280;45234;48.148;17.128;2023-08-06T09:00:09;98556.38;;;19.08
24740;BMP280;45234;48.148;17.128;2023-08-06T09:02:38;98552.50;;;19.06
24740;BMP280;45234;48.148;17.128;2023-08-06T09:05:06;98556.66;;;19.07
24740;BMP280;45234;48.148;17.128;2023-08-06T09:07:47;98548.75;;;18.93
24740;BMP280;45234;48.148;17.128;2023-08-06T09:10:16;98554.91;;;19.02
24740;BMP280;45234;48.148;17.128;2023-08-06T09:12:50;98562.78;;;19.02
24740;BMP280;45234;48.148;17.128;2023-08-06T09:15:17;98578.47;;;19.07
24740;BMP280;45234;48.148;17.128;2023-08-06T09:17:44;98569.94;;;19.15
24740;BMP280;45234;48.148;17.128;2023-08-06T09:20:15;98575.91;;;19.21
24740;BMP280;45234;48.148;17.128;2023-08-06T09:22:43;98575.03;;;19.25
24740;BMP280;45234;48.148;17.128;2023-08-06T09:25:11;98578.53;;;19.21
24740;BMP280;45234;48.148;17.128;2023-08-06T09:27:40;98572.72;;;19.24
24740;BMP280;45234;48.148;17.128;2023-08-06T09:30:08;98571.28;;;19.32
24740;BMP280;45234;48.148;17.128;2023-08-06T09:32:49;98570.91;;;19.19
24740;BMP280;45234;48.148;17.128;2023-08-06T09:35:19;98573.00;;;19.22
24740;BMP280;45234;48.148;17.128;2023-08-06T09:37:47;98562.94;;;19.24
24740;BMP280;45234;48.148;17.128;2023-08-06T09:40:26;98577.38;;;19.27
24740;BMP280;45234;48.148;17.128;2023-08-06T09:42:56;98577.41;;;19.41
24740;BMP280;45234;48.148;17.128;2023-08-06T09:45:36;98578.56;;;19.48
24740;BMP280;45234;48.148;17.128;2023-08-06T09:48:06;98587.94;;;19.54
24740;BMP280;45234;48.148;17.128;2023-08-06T09:50:36;98581.91;;;19.54
24740;BMP280;45234;48.148;17.128;2023-08-06T09:53:07;98574.50;;;19.56
24740;BMP280;45234;48.148;17.128;2023-08-06T09:55:48;98585.44;;;19.63
24740;BMP280;45234;48.148;17.128;2023-08-06T09:58:58;98587.53;;;19.47
24740;BMP280;45234;48.148;17.128;2023-08-06T10:01:34;98579.38;;;19.62
24740;BMP280;45234;48.148;17.128;2023-08-06T10:07:24;98595.53;;;19.56
24740;BMP280;45234;48.148;17.128;2023-08-06T10:09:51;98604.88;;;19.62
24740;BMP280;45234;48.148;17.128;2023-08-06T10:12:22;98602.47;;;19.65
24740;BMP280;45234;48.148;17.128;2023-08-06T10:14:55;98602.84;;;19.73
24740;BMP280;45234;48.148;17.128;2023-08-06T10:17:24;98605.59;;;19.81
24740;BMP280;45234;48.148;17.128;2023-08-06T10:20:04;98609.75;;;19.69
24740;BMP280;45234;48.148;17.128;2023-08-06T10:23:02;98604.84;;;19.48
24740;BMP280;45234;48.148;17.128;2023-08-06T10:25:35;98615.97;;;19.59
24740;BMP280;45234;48.148;17.128;2023-08-06T10:28:09;98610.84;;;19.68
24740;BMP280;45234;48.148;17.128;2023-08-06T10:30:48;98626.06;;;19.52
24740;BMP280;45234;48.148;17.128;2023-08-06T10:33:20;98623.56;;;19.60
24740;BMP280;45234;48.148;17.128;2023-08-06T10:35:48;98625.91;;;19.62
24740;BMP280;45234;48.148;17.128;2023-08-06T10:38:21;98627.84;;;19.56
24740;BMP280;45234;48.148;17.128;2023-08-06T10:40:50;98625.72;;;19.58
24740;BMP280;45234;48.148;17.128;2023-08-06T10:43:46;98641.50;;;19.40
24740;BMP280;45234;48.148;17.128;2023-08-06T10:46:26;98635.78;;;19.51
24740;BMP280;45234;48.148;17.128;2023-08-06T10:48:53;98629.91;;;19.59
24740;BMP280;45234;48.148;17.128;2023-08-06T10:51:20;98639.44;;;19.69
24740;BMP280;45234;48.148;17.128;2023-08-06T10:53:51;98647.53;;;19.73
24740;BMP280;45234;48.148;17.128;2023-08-06T10:56:20;98650.94;;;19.73
24740;BMP280;45234;48.148;17.128;2023-08-06T10:58:50;98662.44;;;19.77
24740;BMP280;45234;48.148;17.128;2023-08-06T11:01:18;98653.00;;;19.76
24740;BMP280;45234;48.148;17.128;2023-08-06T11:03:46;98657.06;;;19.69
24740;BMP280;45234;48.148;17.128;2023-08-06T11:06:19;98666.59;;;19.64
24740;BMP280;45234;48.148;17.128;2023-08-06T11:08:54;98668.44;;;19.64
24740;BMP280;45234;48.148;17.128;2023-08-06T11:11:23;98681.16;;;19.76
24740;BMP280;45234;48.148;17.128;2023-08-06T11:13:51;98683.78;;;19.76
24740;BMP280;45234;48.148;17.128;2023-08-06T11:16:20;98687.06;;;19.68
24740;BMP280;45234;48.148;17.128;2023-08-06T11:18:48;98686.84;;;19.64
24740;BMP280;45234;48.148;17.128;2023-08-06T11:21:21;98688.88;;;19.53
24740;BMP280;45234;48.148;17.128;2023-08-06T11:23:49;98694.19;;;19.48
24740;BMP280;45234;48.148;17.128;2023-08-06T11:26:20;98690.09;;;19.42
24740;BMP280;45234;48.148;17.128;2023-08-06T11:28:47;98693.59;;;19.51
24740;BMP280;45234;48.148;17.128;2023-08-06T11:31:21;98692.44;;;19.44
24740;BMP280;45234;48.148;17.128;2023-08-06T11:33:56;98702.59;;;19.50
24740;BMP280;45234;48.148;17.128;2023-08-06T11:39:11;98705.91;;;19.56
24740;BMP280;45234;48.148;17.128;2023-08-06T11:41:51;98702.22;;;19.57
24740;BMP280;45234;48.148;17.128;2023-08-06T11:44:24;98704.75;;;19.62
24740;BMP280;45234;48.148;17.128;2023-08-06T11:47:01;98714.56;;;19.56
24740;BMP280;45234;48.148;17.128;2023-08-06T11:49:48;98713.09;;;19.50
24740;BMP280;45234;48.148;17.128;2023-08-06T11:52:25;98713.69;;;19.61
24740;BMP280;45234;48.148;17.128;2023-08-06T11:55:06;98719.53;;;19.58
24740;BMP280;45234;48.148;17.128;2023-08-06T11:57:38;98720.16;;;19.69
24740;BMP280;45234;48.148;17.128;2023-08-06T12:00:11;98722.16;;;19.77
24740;BMP280;45234;48.148;17.128;2023-08-06T12:02:50;98729.91;;;19.82
24740;BMP280;45234;48.148;17.128;2023-08-06T12:05:28;98728.63;;;19.98
24740;BMP280;45234;48.148;17.128;2023-08-06T12:07:56;98732.31;;;19.97
24740;BMP280;45234;48.148;17.128;2023-08-06T12:10:29;98740.28;;;19.92
24740;BMP280;45234;48.148;17.128;2023-08-06T12:13:03;98733.47;;;19.91
24740;BMP280;45234;48.148;17.128;2023-08-06T12:15:30;98742.00;;;19.83
24740;BMP280;45234;48.148;17.128;2023-08-06T12:18:00;98746.28;;;19.79
24740;BMP280;45234;48.148;17.128;2023-08-06T12:20:28;98748.91;;;19.79
24740;BMP280;45234;48.148;17.128;2023-08-06T12:22:55;98751.53;;;19.79
24740;BMP280;45234;48.148;17.128;2023-08-06T12:25:22;98756.63;;;19.75
24740;BMP280;45234;48.148;17.128;2023-08-06T12:27:53;98756.88;;;19.74
24740;BMP280;45234;48.148;17.128;2023-08-06T12:30:20;98759.56;;;19.69
24740;BMP280;45234;48.148;17.128;2023-08-06T12:32:47;98764.28;;;19.72
24740;BMP280;45234;48.148;17.128;2023-08-06T12:35:17;98763.84;;;19.64
24740;BMP280;45234;48.148;17.128;2023-08-06T12:37:47;98759.16;;;19.61
24740;BMP280;45234;48.148;17.128;2023-08-06T12:40:13;98760.81;;;19.57
24740;BMP280;45234;48.148;17.128;2023-08-06T12:43:01;98766.06;;;19.57
24740;BMP280;45234;48.148;17.128;2023-08-06T12:45:28;98769.47;;;19.39
24740;BMP280;45234;48.148;17.128;2023-08-06T12:47:56;98765.13;;;19.30
24740;BMP280;45234;48.148;17.128;2023-08-06T12:50:23;98774.06;;;19.28
24740;BMP280;45234;48.148;17.128;2023-08-06T12:52:50;98778.34;;;19.24
24740;BMP280;45234;48.148;17.128;2023-08-06T12:55:17;98781.19;;;19.28
24740;BMP280;45234;48.148;17.128;2023-08-06T12:57:44;98786.94;;;19.30
24740;BMP280;45234;48.148;17.128;2023-08-06T13:00:23;98792.47;;;19.28
24740;BMP280;45234;48.148;17.128;2023-08-06T13:02:50;98789.84;;;19.28
24740;BMP280;45234;48.148;17.128;2023-08-06T13:05:17;98786.56;;;19.18
24740;BMP280;45234;48.148;17.128;2023-08-06T13:07:44;98789.78;;;19.15
24740;BMP280;45234;48.148;17.128;2023-08-06T13:10:11;98786.53;;;19.23
24740;BMP280;45234;48.148;17.128;2023-08-06T13:12:38;98789.69;;;19.20
24740;BMP280;45234;48.148;17.128;2023-08-06T13:15:06;98790.88;;;19.09
24740;BMP280;45234;48.148;17.128;2023-08-06T13:17:33;98795.13;;;19.10
24740;BMP280;45234;48.148;17.128;2023-08-06T13:20:00;98800.28;;;19.15
24740;BMP280;45234;48.148;17.128;2023-08-06T13:22:29;98797.88;;;19.18
24740;BMP280;45234;48.148;17.128;2023-08-06T13:24:56;98800.94;;;19.25
24740;BMP280;45234;48.148;17.128;2023-08-06T13:27:23;98804.06;;;19.27
24740;BMP280;45234;48.148;17.128;2023-08-06T13:29:50;98805.44;;;19.20
24740;BMP280;45234;48.148;17.128;2023-08-06T13:32:17;98811.63;;;19.29
24740;BMP280;45234;48.148;17.128;2023-08-06T13:34:44;98819.19;;;19.36
24740;BMP280;45234;48.148;17.128;2023-08-06T13:37:11;98825.16;;;19.41
24740;BMP280;45234;48.148;17.128;2023-08-06T13:39:38;98824.19;;;19.37
24740;BMP280;45234;48.148;17.128;2023-08-06T13:42:05;98822.59;;;19.36
24740;BMP280;45234;48.148;17.128;2023-08-06T13:44:31;98815.78;;;19.35
24740;BMP280;45234;48.148;17.128;2023-08-06T13:47:02;98817.56;;;19.40
24740;BMP280;45234;48.148;17.128;2023-08-06T13:49:29;98819.97;;;19.36
24740;BMP280;45234;48.148;17.128;2023-08-06T13:51:56;98817.03;;;19.19
24740;BMP280;45234;48.148;17.128;2023-08-06T13:54:47;98830.34;;;19.04
24740;BMP280;45234;48.148;17.128;2023-08-06T13:57:15;98825.22;;;18.94
24740;BMP280;45234;48.148;17.128;2023-08-06T13:59:44;98827.72;;;18.80
24740;BMP280;45234;48.148;17.128;2023-08-06T14:02:11;98837.94;;;18.81
24740;BMP280;45234;48.148;17.128;2023-08-06T14:04:39;98831.56;;;18.87
24740;BMP280;45234;48.148;17.128;2023-08-06T14:07:10;98826.78;;;18.95
24740;BMP280;45234;48.148;17.128;2023-08-06T14:09:40;98833.41;;;19.11
24740;BMP280;45234;48.148;17.128;2023-08-06T14:12:08;98838.06;;;19.19
24740;BMP280;45234;48.148;17.128;2023-08-06T14:14:35;98825.63;;;19.24
24740;BMP280;45234;48.148;17.128;2023-08-06T14:17:06;98831.81;;;19.34
24740;BMP280;45234;48.148;17.128;2023-08-06T14:19:32;98842.91;;;19.49
24740;BMP280;45234;48.148;17.128;2023-08-06T14:22:02;98836.28;;;19.52